sensor_id;sensor_type;location;lat;lon;timestamp;pressure;altitude;pressure_sealevel;temperature;humidity
36138;BME280;67787;50.074;21.904;2023-05-20T00:01:42;100016.49;;;11.91;79.39
36138;BME280;67787;50.074;21.904;2023-05-20T00:04:10;100011.73;;;11.90;79.20
36138;BME280;67787;50.074;21.904;2023-05-20T00:06:38;100009.17;;;11.91;79.34
36138;BME280;67787;50.074;21.904;2023-05-20T00:09:06;100005.05;;;11.92;79.37
36138;BME280;67787;50.074;21.904;2023-05-20T00:11:35;99998.52;;;11.91;79.47
36138;BME280;67787;50.074;21.904;2023-05-20T00:14:02;100000.64;;;11.91;79.45
36138;BME280;67787;50.074;21.904;2023-05-20T00:16:30;100001.84;;;11.92;79.39
36138;BME280;67787;50.074;21.904;2023-05-20T00:18:59;100001.85;;;11.92;79.46
36138;BME280;67787;50.074;21.904;2023-05-20T00:21:26;100000.73;;;11.93;79.54
36138;BME280;67787;50.074;21.904;2023-05-20T00:23:57;100003.39;;;11.93;79.52
36138;BME280;67787;50.074;21.904;2023-05-20T00:26:25;100004.98;;;11.94;79.52
36138;BME280;67787;50.074;21.904;2023-05-20T00:28:55;100004.09;;;11.94;79.64
36138;BME280;67787;50.074;21.904;2023-05-20T00:31:23;100006.92;;;11.94;79.55
36138;BME280;67787;50.074;21.904;2023-05-20T00:33:51;100004.40;;;11.94;79.61
36138;BME280;67787;50.074;21.904;2023-05-20T00:36:20;100004.05;;;11.94;79.69
36138;BME280;67787;50.074;21.904;2023-05-20T00:38:48;100001.76;;;11.94;79.58
36138;BME280;67787;50.074;21.904;2023-05-20T00:41:16;100004.59;;;11.94;79.67
36138;BME280;67787;50.074;21.904;2023-05-20T00:43:43;100002.83;;;11.94;79.63
36138;BME280;67787;50.074;21.904;2023-05-20T00:46:11;100001.22;;;11.94;79.68
36138;BME280;67787;50.074;21.904;2023-05-20T00:48:42;100000.84;;;11.94;79.69
36138;BME280;67787;50.074;21.904;2023-05-20T00:51:12;100003.16;;;11.94;79.64
36138;BME280;67787;50.074;21.904;2023-05-20T00:53:41;100000.70;;;11.93;79.83
36138;BME280;67787;50.074;21.904;2023-05-20T00:56:10;100004.27;;;11.94;79.76
36138;BME280;67787;50.074;21.904;2023-05-20T00:58:39;100002.80;;;11.94;79.77
36138;BME280;67787;50.074;21.904;2023-05-20T01:01:07;100006.52;;;11.94;79.71
36138;BME280;67787;50.074;21.904;2023-05-20T01:03:36;99998.70;;;11.94;79.88
36138;BME280;67787;50.074;21.904;2023-05-20T01:06:04;99998.70;;;11.95;79.86
36138;BME280;67787;50.074;21.904;2023-05-20T01:08:33;99997.07;;;11.95;79.85
36138;BME280;67787;50.074;21.904;2023-05-20T01:11:05;99992.78;;;11.95;79.95
36138;BME280;67787;50.074;21.904;2023-05-20T01:13:42;99995.48;;;11.94;79.96
36138;BME280;67787;50.074;21.904;2023-05-20T01:16:14;99994.04;;;11.95;80.00
36138;BME280;67787;50.074;21.904;2023-05-20T01:18:46;99990.48;;;11.95;79.92
36138;BME280;67787;50.074;21.904;2023-05-20T01:21:16;99986.38;;;11.96;80.00
36138;BME280;67787;50.074;21.904;2023-05-20T01:23:44;99986.41;;;11.95;80.06
36138;BME280;67787;50.074;21.904;2023-05-20T01:26:12;99984.30;;;11.94;79.96
36138;BME280;67787;50.074;21.904;2023-05-20T01:28:41;99986.05;;;11.95;79.96
36138;BME280;67787;50.074;21.904;2023-05-20T01:31:20;99984.17;;;11.93;80.00
36138;BME280;67787;50.074;21.904;2023-05-20T01:33:54;99983.84;;;11.93;80.01
36138;BME280;67787;50.074;21.904;2023-05-20T01:36:25;99986.13;;;11.90;80.02
36138;BME280;67787;50.074;21.904;2023-05-20T01:38:55;99979.58;;;11.90;80.10
36138;BME280;67787;50.074;21.904;2023-05-20T01:41:25;99980.35;;;11.89;80.06
36138;BME280;67787;50.074;21.904;2023-05-20T01:43:54;99978.09;;;11.88;80.08
36138;BME280;67787;50.074;21.904;2023-05-20T01:46:22;99982.17;;;11.88;80.18
36138;BME280;67787;50.074;21.904;2023-05-20T01:49:01;99981.48;;;11.88;80.14
36138;BME280;67787;50.074;21.904;2023-05-20T01:51:29;99981.02;;;11.87;80.21
36138;BME280;67787;50.074;21.904;2023-05-20T01:54:00;99981.75;;;11.87;80.25
36138;BME280;67787;50.074;21.904;2023-05-20T01:56:29;99976.40;;;11.87;80.15
36138;BME280;67787;50.074;21.904;2023-05-20T01:58:57;99975.21;;;11.86;80.19
36138;BME280;67787;50.074;21.904;2023-05-20T02:01:25;99976.61;;;11.84;80.05
36138;BME280;67787;50.074;21.904;2023-05-20T02:03:53;99976.26;;;11.81;80.24
36138;BME280;67787;50.074;21.904;2023-05-20T02:06:21;99977.10;;;11.82;80.31
36138;BME280;67787;50.074;21.904;2023-05-20T02:08:49;99978.38;;;11.84;80.31
36138;BME280;67787;50.074;21.904;2023-05-20T02:11:17;99977.34;;;11.83;80.35
36138;BME280;67787;50.074;21.904;2023-05-20T02:13:45;99977.06;;;11.82;80.31
36138;BME280;67787;50.074;21.904;2023-05-20T02:16:13;99978.04;;;11.81;80.21
36138;BME280;67787;50.074;21.904;2023-05-20T02:18:41;99979.74;;;11.82;80.43
36138;BME280;67787;50.074;21.904;2023-05-20T02:21:09;99979.67;;;11.83;80.48
36138;BME280;67787;50.074;21.904;2023-05-20T02:23:38;99986.33;;;11.85;80.47
36138;BME280;67787;50.074;21.904;2023-05-20T02:26:06;99982.88;;;11.86;80.49
36138;BME280;67787;50.074;21.904;2023-05-20T02:28:33;99990.83;;;11.86;80.46
36138;BME280;67787;50.074;21.904;2023-05-20T02:31:01;99992.18;;;11.87;80.40
36138;BME280;67787;50.074;21.904;2023-05-20T02:33:29;99990.96;;;11.87;80.49
36138;BME280;67787;50.074;21.904;2023-05-20T02:35:57;99988.68;;;11.87;80.54
36138;BME280;67787;50.074;21.904;2023-05-20T02:38:26;99983.89;;;11.86;80.56
36138;BME280;67787;50.074;21.904;2023-05-20T02:40:55;99981.76;;;11.87;80.50
36138;BME280;67787;50.074;21.904;2023-05-20T02:43:23;99977.48;;;11.87;80.62
36138;BME280;67787;50.074;21.904;2023-05-20T02:45:51;99975.31;;;11.87;80.59
36138;BME280;67787;50.074;21.904;2023-05-20T02:48:19;99978.73;;;11.87;80.61
36138;BME280;67787;50.074;21.904;2023-05-20T02:50:47;99979.73;;;11.88;80.65
36138;BME280;67787;50.074;21.904;2023-05-20T02:53:16;99981.92;;;11.89;80.76
36138;BME280;67787;50.074;21.904;2023-05-20T02:55:45;99981.00;;;11.90;80.77
36138;BME280;67787;50.074;21.904;2023-05-20T02:58:16;99981.09;;;11.92;80.72
36138;BME280;67787;50.074;21.904;2023-05-20T03:00:44;99979.61;;;11.93;80.72
36138;BME280;67787;50.074;21.904;2023-05-20T03:03:14;99982.20;;;11.94;80.77
36138;BME280;67787;50.074;21.904;2023-05-20T03:05:43;99976.83;;;11.95;80.72
36138;BME280;67787;50.074;21.904;2023-05-20T03:08:12;99978.78;;;11.95;80.73
36138;BME280;67787;50.074;21.904;2023-05-20T03:10:41;99976.64;;;11.95;80.71
36138;BME280;67787;50.074;21.904;2023-05-20T03:13:09;99986.02;;;11.95;80.76
36138;BME280;67787;50.074;21.904;2023-05-20T03:15:38;99985.37;;;11.95;80.73
36138;BME280;67787;50.074;21.904;2023-05-20T03:18:06;99987.62;;;11.95;80.67
36138;BME280;67787;50.074;21.904;2023-05-20T03:20:35;99991.26;;;11.97;80.85
36138;BME280;67787;50.074;21.904;2023-05-20T03:23:05;99992.38;;;11.99;80.79
36138;BME280;67787;50.074;21.904;2023-05-20T03:25:36;99993.28;;;12.02;80.87
36138;BME280;67787;50.074;21.904;2023-05-20T03:28:04;99996.00;;;12.03;80.79
36138;BME280;67787;50.074;21.904;2023-05-20T03:30:33;99997.77;;;12.03;80.86
36138;BME280;67787;50.074;21.904;2023-05-20T03:33:01;99996.70;;;12.04;80.72
36138;BME280;67787;50.074;21.904;2023-05-20T03:35:30;99996.88;;;12.04;80.70
36138;BME280;67787;50.074;21.904;2023-05-20T03:37:58;99998.44;;;12.04;80.82
36138;BME280;67787;50.074;21.904;2023-05-20T03:40:28;99997.87;;;12.08;80.98
36138;BME280;67787;50.074;21.904;2023-05-20T03:42:56;99997.20;;;12.10;80.89
36138;BME280;67787;50.074;21.904;2023-05-20T03:45:24;100002.59;;;12.12;80.93
36138;BME280;67787;50.074;21.904;2023-05-20T03:47:52;100001.05;;;12.14;81.02
36138;BME280;67787;50.074;21.904;2023-05-20T03:50:21;100003.30;;;12.17;81.03
36138;BME280;67787;50.074;21.904;2023-05-20T03:52:48;100003.71;;;12.20;81.01
36138;BME280;67787;50.074;21.904;2023-05-20T03:55:16;100003.22;;;12.24;81.08
36138;BME280;67787;50.074;21.904;2023-05-20T03:57:47;99998.76;;;12.27;80.92
36138;BME280;67787;50.074;21.904;2023-05-20T04:00:15;100008.02;;;12.30;81.08
36138;BME280;67787;50.074;21.904;2023-05-20T04:02:43;100004.25;;;12.33;81.22
36138;BME280;67787;50.074;21.904;2023-05-20T04:05:13;99999.39;;;12.37;81.03
36138;BME280;67787;50.074;21.904;2023-05-20T04:07:41;99999.14;;;12.41;81.14
36138;BME280;67787;50.074;21.904;2023-05-20T04:10:09;100001.91;;;12.45;81.07
36138;BME280;67787;50.074;21.904;2023-05-20T04:12:38;99996.17;;;12.48;81.19
36138;BME280;67787;50.074;21.904;2023-05-20T04:15:06;99999.36;;;12.54;81.16
36138;BME280;67787;50.074;21.904;2023-05-20T04:17:34;100001.95;;;12.55;81.01
36138;BME280;67787;50.074;21.904;2023-05-20T04:20:06;99999.11;;;12.58;81.25
36138;BME280;67787;50.074;21.904;2023-05-20T04:22:34;99998.59;;;12.63;81.20
36138;BME280;67787;50.074;21.904;2023-05-20T04:25:02;99998.77;;;12.68;81.27
36138;BME280;67787;50.074;21.904;2023-05-20T04:27:33;99999.48;;;12.74;81.32
36138;BME280;67787;50.074;21.904;2023-05-20T04:30:00;99998.27;;;12.78;81.26
36138;BME280;67787;50.074;21.904;2023-05-20T04:32:29;99996.80;;;12.85;81.23
36138;BME280;67787;50.074;21.904;2023-05-20T04:34:59;99996.78;;;12.90;81.31
36138;BME280;67787;50.074;21.904;2023-05-20T04:37:28;100000.63;;;12.93;81.28
36138;BME280;67787;50.074;21.904;2023-05-20T04:39:58;100000.88;;;12.98;81.38
36138;BME280;67787;50.074;21.904;2023-05-20T04:42:26;99999.05;;;13.01;81.13
36138;BME280;67787;50.074;21.904;2023-05-20T04:44:54;99999.34;;;13.00;81.22
36138;BME280;67787;50.074;21.904;2023-05-20T04:47:22;100001.58;;;13.01;81.30
36138;BME280;67787;50.074;21.904;2023-05-20T04:49:50;99997.94;;;13.05;81.41
36138;BME280;67787;50.074;21.904;2023-05-20T04:52:19;99993.54;;;13.09;81.37
36138;BME280;67787;50.074;21.904;2023-05-20T04:54:47;99992.94;;;13.13;81.41
36138;BME280;67787;50.074;21.904;2023-05-20T04:57:15;99991.52;;;13.18;81.52
36138;BME280;67787;50.074;21.904;2023-05-20T04:59:44;99988.79;;;13.21;81.40
36138;BME280;67787;50.074;21.904;2023-05-20T05:02:12;99990.80;;;13.23;81.39
36138;BME280;67787;50.074;21.904;2023-05-20T05:04:41;99987.77;;;13.29;81.50
36138;BME280;67787;50.074;21.904;2023-05-20T05:07:09;99987.77;;;13.34;81.39
36138;BME280;67787;50.074;21.904;2023-05-20T05:09:37;99991.02;;;13.38;81.47
36138;BME280;67787;50.074;21.904;2023-05-20T05:12:06;99989.48;;;13.43;81.45
36138;BME280;67787;50.074;21.904;2023-05-20T05:14:34;99985.63;;;13.47;81.36
36138;BME280;67787;50.074;21.904;2023-05-20T05:17:02;99992.11;;;13.51;81.33
36138;BME280;67787;50.074;21.904;2023-05-20T05:19:30;99993.73;;;13.51;81.27
36138;BME280;67787;50.074;21.904;2023-05-20T05:21:58;100001.27;;;13.53;81.41
36138;BME280;67787;50.074;21.904;2023-05-20T05:24:26;100007.54;;;13.54;81.44
36138;BME280;67787;50.074;21.904;2023-05-20T05:26:55;100008.30;;;13.57;81.47
36138;BME280;67787;50.074;21.904;2023-05-20T05:29:23;100011.70;;;13.59;81.46
36138;BME280;67787;50.074;21.904;2023-05-20T05:31:50;100014.84;;;13.63;81.46
36138;BME280;67787;50.074;21.904;2023-05-20T05:34:18;100020.66;;;13.66;81.53
36138;BME280;67787;50.074;21.904;2023-05-20T05:36:47;100018.52;;;13.68;81.57
36138;BME280;67787;50.074;21.904;2023-05-20T05:39:14;100017.29;;;13.71;81.48
36138;BME280;67787;50.074;21.904;2023-05-20T05:41:43;100014.98;;;13.74;81.49
36138;BME280;67787;50.074;21.904;2023-05-20T05:44:11;100012.26;;;13.77;81.52
36138;BME280;67787;50.074;21.904;2023-05-20T05:46:39;100015.26;;;13.82;81.55
36138;BME280;67787;50.074;21.904;2023-05-20T05:49:06;100013.87;;;13.89;81.58
36138;BME280;67787;50.074;21.904;2023-05-20T05:51:35;100019.34;;;13.92;81.60
36138;BME280;67787;50.074;21.904;2023-05-20T05:54:08;100020.48;;;13.96;81.59
36138;BME280;67787;50.074;21.904;2023-05-20T05:56:36;100026.30;;;14.03;81.60
36138;BME280;67787;50.074;21.904;2023-05-20T05:59:04;100029.19;;;14.07;81.51
36138;BME280;67787;50.074;21.904;2023-05-20T06:01:32;100026.15;;;14.12;81.63
36138;BME280;67787;50.074;21.904;2023-05-20T06:04:00;100027.66;;;14.19;81.47
36138;BME280;67787;50.074;21.904;2023-05-20T06:06:30;100028.89;;;14.24;81.60
36138;BME280;67787;50.074;21.904;2023-05-20T06:08:58;100031.77;;;14.28;81.37
36138;BME280;67787;50.074;21.904;2023-05-20T06:11:26;100031.77;;;14.31;81.45
36138;BME280;67787;50.074;21.904;2023-05-20T06:13:54;100029.75;;;14.34;81.54
36138;BME280;67787;50.074;21.904;2023-05-20T06:16:22;100027.08;;;14.37;81.45
36138;BME280;67787;50.074;21.904;2023-05-20T06:18:50;100024.98;;;14.41;81.55
36138;BME280;67787;50.074;21.904;2023-05-20T06:21:22;100027.44;;;14.48;81.50
36138;BME280;67787;50.074;21.904;2023-05-20T06:23:50;100017.20;;;14.54;81.55
36138;BME280;67787;50.074;21.904;2023-05-20T06:26:19;100021.03;;;14.63;81.62
36138;BME280;67787;50.074;21.904;2023-05-20T06:28:46;100020.91;;;14.70;81.43
36138;BME280;67787;50.074;21.904;2023-05-20T06:31:14;100018.16;;;14.75;81.54
36138;BME280;67787;50.074;21.904;2023-05-20T06:33:42;100018.77;;;14.86;81.68
36138;BME280;67787;50.074;21.904;2023-05-20T06:36:11;100015.66;;;14.97;81.58
36138;BME280;67787;50.074;21.904;2023-05-20T06:38:38;100016.84;;;15.07;81.56
36138;BME280;67787;50.074;21.904;2023-05-20T06:41:07;100013.27;;;15.14;81.47
36138;BME280;67787;50.074;21.904;2023-05-20T06:43:35;100015.40;;;15.26;81.65
36138;BME280;67787;50.074;21.904;2023-05-20T06:46:03;100012.47;;;15.39;81.64
36138;BME280;67787;50.074;21.904;2023-05-20T06:48:31;100011.88;;;15.49;81.46
36138;BME280;67787;50.074;21.904;2023-05-20T06:50:59;100016.54;;;15.56;81.42
36138;BME280;67787;50.074;21.904;2023-05-20T06:53:27;100009.02;;;15.60;81.39
36138;BME280;67787;50.074;21.904;2023-05-20T06:55:55;100008.02;;;15.67;81.45
36138;BME280;67787;50.074;21.904;2023-05-20T06:58:23;100005.52;;;15.75;81.35
36138;BME280;67787;50.074;21.904;2023-05-20T07:00:51;100004.97;;;15.85;81.33
36138;BME280;67787;50.074;21.904;2023-05-20T07:03:19;100009.17;;;15.95;81.29
36138;BME280;67787;50.074;21.904;2023-05-20T07:05:47;100007.07;;;16.01;81.24
36138;BME280;67787;50.074;21.904;2023-05-20T07:08:15;100010.36;;;16.07;81.36
36138;BME280;67787;50.074;21.904;2023-05-20T07:10:44;100013.46;;;16.13;81.23
36138;BME280;67787;50.074;21.904;2023-05-20T07:13:13;100012.70;;;16.20;81.24
36138;BME280;67787;50.074;21.904;2023-05-20T07:15:40;100011.39;;;16.30;81.40
36138;BME280;67787;50.074;21.904;2023-05-20T07:18:09;100009.44;;;16.41;81.33
36138;BME280;67787;50.074;21.904;2023-05-20T07:20:37;100009.03;;;16.52;81.12
36138;BME280;67787;50.074;21.904;2023-05-20T07:23:05;100008.17;;;16.63;81.22
36138;BME280;67787;50.074;21.904;2023-05-20T07:25:33;100007.36;;;16.79;81.32
36138;BME280;67787;50.074;21.904;2023-05-20T07:28:01;100007.58;;;16.96;81.25
36138;BME280;67787;50.074;21.904;2023-05-20T07:30:29;100009.68;;;16.99;80.78
36138;BME280;67787;50.074;21.904;2023-05-20T07:32:57;100006.11;;;16.94;80.76
36138;BME280;67787;50.074;21.904;2023-05-20T07:35:25;100004.82;;;16.97;80.85
36138;BME280;67787;50.074;21.904;2023-05-20T07:37:53;100002.84;;;17.00;80.85
36138;BME280;67787;50.074;21.904;2023-05-20T07:40:21;100001.88;;;17.02;80.81
36138;BME280;67787;50.074;21.904;2023-05-20T07:42:49;99999.96;;;17.12;81.02
36138;BME280;67787;50.074;21.904;2023-05-20T07:45:17;100002.84;;;17.14;80.77
36138;BME280;67787;50.074;21.904;2023-05-20T07:47:45;99997.40;;;17.13;80.78
36138;BME280;67787;50.074;21.904;2023-05-20T07:50:13;99995.27;;;17.19;80.75
36138;BME280;67787;50.074;21.904;2023-05-20T07:52:42;99996.47;;;17.28;80.97
36138;BME280;67787;50.074;21.904;2023-05-20T07:55:22;99995.47;;;17.42;80.86
36138;BME280;67787;50.074;21.904;2023-05-20T07:57:51;99992.29;;;17.60;80.90
36138;BME280;67787;50.074;21.904;2023-05-20T08:00:19;99989.40;;;17.81;80.98
36138;BME280;67787;50.074;21.904;2023-05-20T08:02:47;99991.51;;;18.00;80.81
36138;BME280;67787;50.074;21.904;2023-05-20T08:05:15;99990.23;;;18.15;80.54
36138;BME280;67787;50.074;21.904;2023-05-20T08:07:43;99987.43;;;18.26;80.41
36138;BME280;67787;50.074;21.904;2023-05-20T08:10:11;99984.19;;;18.34;80.32
36138;BME280;67787;50.074;21.904;2023-05-20T08:12:40;99981.87;;;18.40;80.32
36138;BME280;67787;50.074;21.904;2023-05-20T08:15:08;99982.17;;;18.36;79.94
36138;BME280;67787;50.074;21.904;2023-05-20T08:17:36;99983.05;;;18.27;79.93
36138;BME280;67787;50.074;21.904;2023-05-20T08:20:05;99985.00;;;18.23;80.03
36138;BME280;67787;50.074;21.904;2023-05-20T08:22:34;99985.55;;;18.19;79.86
36138;BME280;67787;50.074;21.904;2023-05-20T08:25:07;99985.59;;;18.14;79.79
36138;BME280;67787;50.074;21.904;2023-05-20T08:27:36;99981.97;;;18.06;79.77
36138;BME280;67787;50.074;21.904;2023-05-20T08:30:04;99980.11;;;18.07;79.83
36138;BME280;67787;50.074;21.904;2023-05-20T08:32:35;99983.66;;;18.18;79.88
36138;BME280;67787;50.074;21.904;2023-05-20T08:35:07;99983.34;;;18.33;80.03
36138;BME280;67787;50.074;21.904;2023-05-20T08:37:35;99976.52;;;18.51;80.01
36138;BME280;67787;50.074;21.904;2023-05-20T08:40:04;99980.39;;;18.66;80.09
36138;BME280;67787;50.074;21.904;2023-05-20T08:42:33;99976.98;;;18.74;79.88
36138;BME280;67787;50.074;21.904;2023-05-20T08:45:01;99977.48;;;18.78;79.67
36138;BME280;67787;50.074;21.904;2023-05-20T08:47:29;99979.39;;;18.83;79.58
36138;BME280;67787;50.074;21.904;2023-05-20T08:49:58;99980.64;;;18.89;79.57
36138;BME280;67787;50.074;21.904;2023-05-20T08:52:28;99979.77;;;18.98;79.63
36138;BME280;67787;50.074;21.904;2023-05-20T08:54:58;99978.73;;;19.10;79.42
36138;BME280;67787;50.074;21.904;2023-05-20T08:57:27;99978.96;;;19.16;79.38
36138;BME280;67787;50.074;21.904;2023-05-20T08:59:55;99979.16;;;19.11;79.07
36138;BME280;67787;50.074;21.904;2023-05-20T09:02:24;99974.58;;;19.15;79.17
36138;BME280;67787;50.074;21.904;2023-05-20T09:04:52;99969.27;;;19.32;79.31
36138;BME280;67787;50.074;21.904;2023-05-20T09:07:27;99969.78;;;19.43;79.30
36138;BME280;67787;50.074;21.904;2023-05-20T09:09:56;99973.00;;;19.53;78.98
36138;BME280;67787;50.074;21.904;2023-05-20T09:12:24;99973.56;;;19.51;78.77
36138;BME280;67787;50.074;21.904;2023-05-20T09:14:52;99974.13;;;19.60;78.95
36138;BME280;67787;50.074;21.904;2023-05-20T09:17:22;99968.67;;;19.77;79.09
36138;BME280;67787;50.074;21.904;2023-05-20T09:19:54;99966.39;;;19.91;78.82
36138;BME280;67787;50.074;21.904;2023-05-20T09:22:27;99966.73;;;19.91;78.64
36138;BME280;67787;50.074;21.904;2023-05-20T09:24:55;99960.29;;;19.98;78.52
36138;BME280;67787;50.074;21.904;2023-05-20T09:27:23;99960.05;;;20.02;78.66
36138;BME280;67787;50.074;21.904;2023-05-20T09:29:51;99961.03;;;19.92;78.16
36138;BME280;67787;50.074;21.904;2023-05-20T09:32:20;99960.98;;;19.87;78.23
36138;BME280;67787;50.074;21.904;2023-05-20T09:34:50;99956.88;;;19.75;77.80
36138;BME280;67787;50.074;21.904;2023-05-20T09:37:20;99951.35;;;19.67;78.11
36138;BME280;67787;50.074;21.904;2023-05-20T09:39:54;99950.16;;;19.64;78.03
36138;BME280;67787;50.074;21.904;2023-05-20T09:42:39;99949.43;;;19.70;77.90
36138;BME280;67787;50.074;21.904;2023-05-20T09:45:08;99953.23;;;19.70;77.80
36138;BME280;67787;50.074;21.904;2023-05-20T09:47:40;99950.02;;;19.66;77.78
36138;BME280;67787;50.074;21.904;2023-05-20T09:50:08;99951.05;;;19.72;77.78
36138;BME280;67787;50.074;21.904;2023-05-20T09:52:38;99953.47;;;19.84;77.75
36138;BME280;67787;50.074;21.904;2023-05-20T09:55:07;99953.73;;;20.09;77.85
36138;BME280;67787;50.074;21.904;2023-05-20T09:57:39;99955.89;;;20.26;77.73
36138;BME280;67787;50.074;21.904;2023-05-20T10:00:07;99955.48;;;20.41;77.56
36138;BME280;67787;50.074;21.904;2023-05-20T10:02:35;99955.55;;;20.51;77.56
36138;BME280;67787;50.074;21.904;2023-05-20T10:05:08;99955.31;;;20.52;77.34
36138;BME280;67787;50.074;21.904;2023-05-20T10:10:48;99950.69;;;20.24;76.67
36138;BME280;67787;50.074;21.904;2023-05-20T10:13:24;99955.41;;;19.92;76.35
36138;BME280;67787;50.074;21.904;2023-05-20T10:16:17;99950.15;;;19.79;76.27
36138;BME280;67787;50.074;21.904;2023-05-20T10:19:19;99950.79;;;19.76;76.53
36138;BME280;67787;50.074;21.904;2023-05-20T10:22:04;99950.66;;;19.86;76.60
36138;BME280;67787;50.074;21.904;2023-05-20T10:24:37;99941.66;;;19.95;76.59
36138;BME280;67787;50.074;21.904;2023-05-20T10:27:10;99946.21;;;19.98;76.37
36138;BME280;67787;50.074;21.904;2023-05-20T10:29:50;99944.70;;;19.89;76.17
36138;BME280;67787;50.074;21.904;2023-05-20T10:32:25;99940.11;;;19.86;76.17
36138;BME280;67787;50.074;21.904;2023-05-20T10:34:58;99941.53;;;19.88;76.21
36138;BME280;67787;50.074;21.904;2023-05-20T10:37:28;99941.88;;;19.87;76.04
36138;BME280;67787;50.074;21.904;2023-05-20T10:40:08;99937.06;;;19.77;75.75
36138;BME280;67787;50.074;21.904;2023-05-20T10:42:38;99939.52;;;19.65;75.90
36138;BME280;67787;50.074;21.904;2023-05-20T10:45:07;99941.30;;;19.59;75.80
36138;BME280;67787;50.074;21.904;2023-05-20T10:47:36;99940.83;;;19.57;75.61
36138;BME280;67787;50.074;21.904;2023-05-20T10:50:24;99942.80;;;19.56;75.60
36138;BME280;67787;50.074;21.904;2023-05-20T10:53:02;99939.48;;;19.54;75.49
36138;BME280;67787;50.074;21.904;2023-05-20T10:55:38;99936.98;;;19.52;75.43
36138;BME280;67787;50.074;21.904;2023-05-20T10:58:08;99934.62;;;19.54;75.54
36138;BME280;67787;50.074;21.904;2023-05-20T11:00:36;99934.84;;;19.54;75.64
36138;BME280;67787;50.074;21.904;2023-05-20T11:03:05;99925.47;;;19.50;75.33
36138;BME280;67787;50.074;21.904;2023-05-20T11:05:34;99924.85;;;19.47;75.37
36138;BME280;67787;50.074;21.904;2023-05-20T11:08:04;99923.39;;;19.42;75.15
36138;BME280;67787;50.074;21.904;2023-05-20T11:10:55;99916.79;;;19.35;75.09
36138;BME280;67787;50.074;21.904;2023-05-20T11:13:24;99915.57;;;19.37;75.19
36138;BME280;67787;50.074;21.904;2023-05-20T11:15:53;99908.59;;;19.37;75.05
36138;BME280;67787;50.074;21.904;2023-05-20T11:18:22;99904.91;;;19.31;74.96
36138;BME280;67787;50.074;21.904;2023-05-20T11:20:49;99904.15;;;19.32;75.02
36138;BME280;67787;50.074;21.904;2023-05-20T11:23:18;99903.58;;;19.34;74.94
36138;BME280;67787;50.074;21.904;2023-05-20T11:25:46;99897.21;;;19.35;74.93
36138;BME280;67787;50.074;21.904;2023-05-20T11:28:13;99899.90;;;19.37;74.97
36138;BME280;67787;50.074;21.904;2023-05-20T11:30:43;99901.55;;;19.40;74.87
36138;BME280;67787;50.074;21.904;2023-05-20T11:33:12;99899.70;;;19.45;74.76
36138;BME280;67787;50.074;21.904;2023-05-20T11:35:45;99898.11;;;19.44;74.55
36138;BME280;67787;50.074;21.904;2023-05-20T11:38:14;99892.91;;;19.44;74.69
36138;BME280;67787;50.074;21.904;2023-05-20T11:40:44;99889.66;;;19.46;74.75
36138;BME280;67787;50.074;21.904;2023-05-20T11:43:19;99887.98;;;19.51;74.72
36138;BME280;67787;50.074;21.904;2023-05-20T11:45:53;99884.48;;;19.54;74.60
36138;BME280;67787;50.074;21.904;2023-05-20T11:48:23;99879.51;;;19.56;74.40
36138;BME280;67787;50.074;21.904;2023-05-20T11:50:52;99878.70;;;19.59;74.53
36138;BME280;67787;50.074;21.904;2023-05-20T11:53:22;99880.61;;;19.61;74.60
36138;BME280;67787;50.074;21.904;2023-05-20T11:56:00;99882.08;;;19.61;74.34
36138;BME280;67787;50.074;21.904;2023-05-20T11:58:29;99877.15;;;19.66;74.46
36138;BME280;67787;50.074;21.904;2023-05-20T12:00:58;99872.44;;;19.70;74.36
36138;BME280;67787;50.074;21.904;2023-05-20T12:03:46;99873.52;;;19.75;74.35
36138;BME280;67787;50.074;21.904;2023-05-20T12:06:15;99872.73;;;19.82;74.32
36138;BME280;67787;50.074;21.904;2023-05-20T12:08:44;99866.34;;;19.84;74.08
36138;BME280;67787;50.074;21.904;2023-05-20T12:11:13;99864.17;;;19.89;74.21
36138;BME280;67787;50.074;21.904;2023-05-20T12:13:40;99860.61;;;19.93;74.25
36138;BME280;67787;50.074;21.904;2023-05-20T12:16:09;99858.24;;;19.96;74.04
36138;BME280;67787;50.074;21.904;2023-05-20T12:18:37;99855.15;;;19.98;73.76
36138;BME280;67787;50.074;21.904;2023-05-20T12:21:05;99844.73;;;19.99;73.77
36138;BME280;67787;50.074;21.904;2023-05-20T12:23:33;99844.23;;;20.03;73.83
36138;BME280;67787;50.074;21.904;2023-05-20T12:26:01;99844.40;;;20.06;73.80
36138;BME280;67787;50.074;21.904;2023-05-20T12:28:29;99839.84;;;20.09;73.59
36138;BME280;67787;50.074;21.904;2023-05-20T12:30:59;99840.87;;;20.11;73.84
36138;BME280;67787;50.074;21.904;2023-05-20T12:33:27;99839.27;;;20.11;73.60
36138;BME280;67787;50.074;21.904;2023-05-20T12:35:55;99833.01;;;20.11;73.80
36138;BME280;67787;50.074;21.904;2023-05-20T12:38:23;99829.51;;;20.10;73.56
36138;BME280;67787;50.074;21.904;2023-05-20T12:40:51;99825.61;;;20.11;73.45
36138;BME280;67787;50.074;21.904;2023-05-20T12:43:19;99825.23;;;20.15;73.38
36138;BME280;67787;50.074;21.904;2023-05-20T12:45:47;99822.37;;;20.19;73.54
36138;BME280;67787;50.074;21.904;2023-05-20T12:48:15;99816.45;;;20.25;73.28
36138;BME280;67787;50.074;21.904;2023-05-20T12:50:43;99813.00;;;20.27;73.03
36138;BME280;67787;50.074;21.904;2023-05-20T12:53:11;99803.77;;;20.29;72.96
36138;BME280;67787;50.074;21.904;2023-05-20T12:55:39;99796.41;;;20.32;72.93
36138;BME280;67787;50.074;21.904;2023-05-20T12:58:07;99791.17;;;20.36;73.01
36138;BME280;67787;50.074;21.904;2023-05-20T13:00:38;99787.02;;;20.42;73.06
36138;BME280;67787;50.074;21.904;2023-05-20T13:03:06;99782.27;;;20.44;72.63